Time;durP1;ratioP1;P1;durP2;ratioP2;P2;SDS_P1;SDS_P2;PMS_P1;PMS_P2;Temp;Humidity;BMP_temperature;BMP_pressure;BME280_temperature;BME280_humidity;BME280_pressure;Samples;Min_cycle;Max_cycle;Signal;HPM_P1;HPM_P2
2023/10/19 00:00:21;;;;;;;24.83;16.38;;;;;;;;;;5108416;28;20047;-48
2023/10/19 00:02:51;;;;;;;29.25;17.80;;;;;;;;;;5105444;28;20093;-50
2023/10/19 00:05:20;;;;;;;28.20;19.00;;;;;;;;;;5108227;28;20452;-47
2023/10/19 00:07:46;;;;;;;52.28;29.95;;;;;;;;;;5106322;27;20421;-49
2023/10/19 00:10:15;;;;;;;45.22;26.35;;;;;;;;;;5106317;28;20040;-49
2023/10/19 00:12:43;;;;;;;41.38;24.17;;;;;;;;;;5107721;28;20085;-50
2023/10/19 00:15:12;;;;;;;33.88;19.42;;;;;;;;;;5100267;28;20039;-51
2023/10/19 00:17:39;;;;;;;31.85;18.88;;;;;;;;;;5105187;28;20130;-49
2023/10/19 00:22:49;;;;;;;28.92;17.33;;;;;;;;;;5108731;28;20423;-51
2023/10/19 00:25:17;;;;;;;27.60;17.02;;;;;;;;;;5112993;28;20054;-53
2023/10/19 00:27:42;;;;;;;35.45;20.00;;;;;;;;;;5111475;28;20070;-50
2023/10/19 00:30:19;;;;;;;33.67;20.58;;;;;;;;;;5112675;28;20489;-48
2023/10/19 00:32:46;;;;;;;32.92;19.70;;;;;;;;;;5112588;28;20055;-49
2023/10/19 00:35:27;;;;;;;33.88;20.80;;;;;;;;;;5109025;27;20472;-50
2023/10/19 00:38:27;;;;;;;28.23;18.02;;;;;;;;;;5110879;28;20055;-50
2023/10/19 00:40:47;;;;;;;30.10;18.48;;;;;;;;;;5110360;28;20578;-49
2023/10/19 00:43:17;;;;;;;33.00;18.92;;;;;;;;;;5112638;28;20059;-51
2023/10/19 00:45:47;;;;;;;27.90;18.63;;;;;;;;;;5111650;28;20059;-51
2023/10/19 00:48:13;;;;;;;25.40;16.88;;;;;;;;;;5111986;28;20100;-51
2023/10/19 00:50:40;;;;;;;28.42;18.45;;;;;;;;;;5106835;28;20481;-47
2023/10/19 00:53:12;;;;;;;25.33;16.60;;;;;;;;;;5108319;28;20047;-50
2023/10/19 00:55:41;;;;;;;24.80;16.67;;;;;;;;;;5111424;28;20059;-50
2023/10/19 00:58:10;;;;;;;25.60;17.23;;;;;;;;;;5106328;28;20435;-47
2023/10/19 01:00:43;;;;;;;27.67;16.40;;;;;;;;;;5111250;28;20044;-50
2023/10/19 01:03:16;;;;;;;28.13;16.75;;;;;;;;;;5111358;27;20067;-51
2023/10/19 01:05:48;;;;;;;26.05;15.32;;;;;;;;;;5109375;28;20052;-50
2023/10/19 01:08:23;;;;;;;25.17;15.63;;;;;;;;;;5111702;28;20048;-51
2023/10/19 01:10:52;;;;;;;26.55;17.90;;;;;;;;;;5109418;28;20063;-50
2023/10/19 01:13:26;;;;;;;25.50;16.73;;;;;;;;;;5111432;28;20410;-53
2023/10/19 01:15:54;;;;;;;27.05;16.27;;;;;;;;;;5108390;28;20050;-50
2023/10/19 01:18:22;;;;;;;27.42;17.48;;;;;;;;;;5111300;28;20039;-51
2023/10/19 01:20:52;;;;;;;24.92;15.50;;;;;;;;;;5109395;28;20517;-52
2023/10/19 01:23:27;;;;;;;23.25;15.75;;;;;;;;;;5111483;28;20411;-47
2023/10/19 01:26:05;;;;;;;26.83;17.13;;;;;;;;;;5110308;28;20047;-48
2023/10/19 01:28:43;;;;;;;28.73;17.20;;;;;;;;;;5110777;28;20146;-47
2023/10/19 01:31:14;;;;;;;26.85;17.02;;;;;;;;;;5111537;28;20077;-52
2023/10/19 01:33:43;;;;;;;30.33;18.35;;;;;;;;;;5110881;28;20125;-54
2023/10/19 01:36:14;;;;;;;25.85;15.98;;;;;;;;;;5107806;28;20211;-51
2023/10/19 01:38:43;;;;;;;28.13;16.15;;;;;;;;;;5108410;28;20064;-50
2023/10/19 01:41:13;;;;;;;27.92;18.33;;;;;;;;;;5109582;28;20069;-49
2023/10/19 01:43:42;;;;;;;25.88;16.48;;;;;;;;;;5111033;28;20086;-50
2023/10/19 01:46:13;;;;;;;29.23;17.38;;;;;;;;;;5110983;28;20051;-48
2023/10/19 01:48:40;;;;;;;28.13;18.52;;;;;;;;;;5108986;28;20137;-49
2023/10/19 01:51:10;;;;;;;27.38;16.80;;;;;;;;;;5107072;28;20147;-50
2023/10/19 01:53:39;;;;;;;26.95;17.40;;;;;;;;;;5109269;28;20058;-48
2023/10/19 01:56:09;;;;;;;27.20;16.98;;;;;;;;;;5108498;28;20071;-48
2023/10/19 01:58:36;;;;;;;28.10;17.10;;;;;;;;;;5110694;28;20134;-50
2023/10/19 02:01:08;;;;;;;26.60;16.45;;;;;;;;;;5108321;28;20497;-51
2023/10/19 02:03:35;;;;;;;25.83;16.45;;;;;;;;;;5106289;28;20081;-50
2023/10/19 02:06:16;;;;;;;24.65;16.13;;;;;;;;;;5108181;28;20066;-50
2023/10/19 02:08:45;;;;;;;28.25;17.90;;;;;;;;;;5105429;28;20144;-49
2023/10/19 02:11:17;;;;;;;28.73;18.08;;;;;;;;;;5109323;28;20101;-49
2023/10/19 02:13:46;;;;;;;27.33;16.65;;;;;;;;;;5107406;28;20457;-49
2023/10/19 02:16:14;;;;;;;36.78;22.35;;;;;;;;;;5110332;28;20168;-49
2023/10/19 02:18:42;;;;;;;33.50;19.55;;;;;;;;;;5110151;28;20048;-48
2023/10/19 02:21:11;;;;;;;31.40;19.45;;;;;;;;;;5106252;28;20050;-50
2023/10/19 02:23:39;;;;;;;27.63;16.88;;;;;;;;;;5109682;28;20059;-53
2023/10/19 02:26:04;;;;;;;28.63;18.30;;;;;;;;;;5110348;28;20047;-53
2023/10/19 02:28:37;;;;;;;27.33;16.83;;;;;;;;;;5109336;28;20147;-54
2023/10/19 02:31:11;;;;;;;29.88;18.23;;;;;;;;;;5104834;28;20182;-57
2023/10/19 02:33:38;;;;;;;26.88;17.30;;;;;;;;;;5108893;27;20052;-56
2023/10/19 02:36:12;;;;;;;27.42;16.92;;;;;;;;;;5109864;28;20129;-56
2023/10/19 02:38:39;;;;;;;29.05;17.70;;;;;;;;;;5105258;28;20050;-58
2023/10/19 02:41:05;;;;;;;25.73;17.13;;;;;;;;;;5108137;28;20138;-56
2023/10/19 02:43:32;;;;;;;26.65;16.98;;;;;;;;;;5106275;28;20039;-58
2023/10/19 02:45:59;;;;;;;27.27;17.08;;;;;;;;;;5105333;28;20058;-55
2023/10/19 02:48:25;;;;;;;27.05;17.23;;;;;;;;;;5108525;27;20043;-53
2023/10/19 02:50:52;;;;;;;26.38;17.05;;;;;;;;;;5107293;28;20387;-54
2023/10/19 02:53:19;;;;;;;28.77;16.40;;;;;;;;;;5108190;28;20082;-56
2023/10/19 02:55:45;;;;;;;26.23;17.13;;;;;;;;;;5110135;28;20055;-54
2023/10/19 02:58:11;;;;;;;25.88;16.67;;;;;;;;;;5104904;28;20061;-52
2023/10/19 03:00:39;;;;;;;26.95;16.63;;;;;;;;;;5105929;28;20482;-55
2023/10/19 03:03:06;;;;;;;27.23;16.52;;;;;;;;;;5105080;28;20048;-54
2023/10/19 03:05:34;;;;;;;27.27;16.58;;;;;;;;;;5107177;28;20437;-55
2023/10/19 03:08:00;;;;;;;26.90;16.20;;;;;;;;;;5102978;28;20048;-55
2023/10/19 03:10:34;;;;;;;29.80;18.10;;;;;;;;;;5107486;28;20043;-54
2023/10/19 03:13:00;;;;;;;27.38;16.08;;;;;;;;;;5102325;28;20078;-53
2023/10/19 03:15:30;;;;;;;27.67;15.65;;;;;;;;;;5109208;28;20047;-55
2023/10/19 03:17:57;;;;;;;25.88;17.67;;;;;;;;;;5109262;28;20135;-55
2023/10/19 03:20:25;;;;;;;28.23;16.42;;;;;;;;;;5102884;28;20044;-54
2023/10/19 03:22:51;;;;;;;27.98;17.90;;;;;;;;;;5104984;28;20474;-56
2023/10/19 03:28:08;;;;;;;26.98;17.20;;;;;;;;;;5107337;28;20490;-57
2023/10/19 03:30:39;;;;;;;25.85;16.48;;;;;;;;;;5106254;28;20045;-57
2023/10/19 03:33:08;;;;;;;29.48;16.15;;;;;;;;;;5108412;28;20047;-58
2023/10/19 03:35:37;;;;;;;25.13;17.07;;;;;;;;;;5104427;27;20725;-52
2023/10/19 03:38:08;;;;;;;23.48;16.77;;;;;;;;;;5105784;28;20039;-57
2023/10/19 03:40:38;;;;;;;26.83;16.58;;;;;;;;;;5106036;28;20405;-55
2023/10/19 03:43:16;;;;;;;25.38;16.35;;;;;;;;;;5106614;28;20075;-53
2023/10/19 03:45:49;;;;;;;23.52;15.48;;;;;;;;;;5108416;28;20043;-51
2023/10/19 03:48:23;;;;;;;22.10;15.05;;;;;;;;;;5107784;28;20134;-49
2023/10/19 03:50:51;;;;;;;25.52;16.38;;;;;;;;;;5099482;28;20463;-50
2023/10/19 03:53:18;;;;;;;23.60;14.50;;;;;;;;;;5107931;28;20560;-50
2023/10/19 03:55:47;;;;;;;26.55;15.15;;;;;;;;;;5102931;28;20572;-48
2023/10/19 03:58:14;;;;;;;26.65;15.82;;;;;;;;;;5108773;28;20047;-55
2023/10/19 04:00:41;;;;;;;26.17;16.50;;;;;;;;;;5108990;28;20410;-50
2023/10/19 04:03:08;;;;;;;23.83;15.13;;;;;;;;;;5100257;28;20041;-50
2023/10/19 04:05:38;;;;;;;22.83;14.68;;;;;;;;;;5108188;28;20074;-48
2023/10/19 04:08:12;;;;;;;23.13;15.30;;;;;;;;;;5106508;28;20047;-48
2023/10/19 04:10:44;;;;;;;23.42;16.27;;;;;;;;;;5107001;28;20047;-49
2023/10/19 04:13:12;;;;;;;23.85;15.63;;;;;;;;;;5104028;28;20075;-51
2023/10/19 04:15:39;;;;;;;22.00;15.88;;;;;;;;;;5109013;28;20058;-55
2023/10/19 04:18:10;;;;;;;24.42;16.17;;;;;;;;;;5108937;28;20484;-49
2023/10/19 04:20:56;;;;;;;21.20;14.25;;;;;;;;;;5104184;28;20518;-51
2023/10/19 04:23:26;;;;;;;23.52;14.75;;;;;;;;;;5103707;28;20506;-49
2023/10/19 04:25:56;;;;;;;20.98;14.30;;;;;;;;;;5106943;28;20051;-50
2023/10/19 04:28:30;;;;;;;21.13;14.32;;;;;;;;;;5108661;28;20733;-50
2023/10/19 04:31:00;;;;;;;20.02;13.85;;;;;;;;;;5105714;28;20044;-53
2023/10/19 04:33:28;;;;;;;22.35;14.00;;;;;;;;;;5108525;28;20429;-52
2023/10/19 04:35:59;;;;;;;21.80;13.65;;;;;;;;;;5103042;28;20517;-50
2023/10/19 04:38:26;;;;;;;22.92;14.02;;;;;;;;;;5104767;28;20054;-50
2023/10/19 04:40:53;;;;;;;20.63;13.90;;;;;;;;;;5103651;28;20554;-53
2023/10/19 04:43:21;;;;;;;20.20;14.35;;;;;;;;;;5103549;28;20071;-52
2023/10/19 04:45:48;;;;;;;18.40;13.48;;;;;;;;;;5104581;28;20138;-51
2023/10/19 04:48:14;;;;;;;28.20;18.42;;;;;;;;;;5108255;28;20054;-52
2023/10/19 04:50:41;;;;;;;20.85;15.02;;;;;;;;;;5105858;28;20044;-54
2023/10/19 04:53:09;;;;;;;18.73;13.60;;;;;;;;;;5106392;28;20108;-48
2023/10/19 04:55:36;;;;;;;20.30;14.13;;;;;;;;;;5103648;28;20089;-51
2023/10/19 04:58:03;;;;;;;18.67;13.73;;;;;;;;;;5107608;28;20047;-51
2023/10/19 05:00:29;;;;;;;25.48;16.75;;;;;;;;;;5107174;28;20051;-49
2023/10/19 05:02:56;;;;;;;24.17;16.05;;;;;;;;;;5103542;28;20056;-51
2023/10/19 05:05:22;;;;;;;28.40;18.65;;;;;;;;;;5107887;28;20138;-49
2023/10/19 05:07:49;;;;;;;27.00;18.67;;;;;;;;;;5110984;28;20398;-48
2023/10/19 05:10:19;;;;;;;26.42;18.15;;;;;;;;;;5107654;28;20048;-51
2023/10/19 05:12:46;;;;;;;25.80;16.50;;;;;;;;;;5107050;28;20492;-52
2023/10/19 05:15:12;;;;;;;28.08;17.02;;;;;;;;;;5108959;28;20054;-52
2023/10/19 05:17:40;;;;;;;25.58;17.40;;;;;;;;;;5110919;28;20558;-53
2023/10/19 05:20:08;;;;;;;25.40;18.60;;;;;;;;;;5108835;28;20055;-51
2023/10/19 05:22:34;;;;;;;25.45;16.48;;;;;;;;;;5111297;28;20039;-50
2023/10/19 05:25:01;;;;;;;25.15;16.75;;;;;;;;;;5109957;28;20490;-50
2023/10/19 05:27:29;;;;;;;22.90;15.35;;;;;;;;;;5108138;28;20073;-49
2023/10/19 05:29:56;;;;;;;20.92;14.95;;;;;;;;;;5111627;28;20050;-54
2023/10/19 05:32:24;;;;;;;19.67;14.15;;;;;;;;;;5108862;28;20055;-52
2023/10/19 05:34:50;;;;;;;17.95;13.60;;;;;;;;;;5106995;28;20146;-53
2023/10/19 05:37:17;;;;;;;18.55;13.50;;;;;;;;;;5106911;28;20123;-48
2023/10/19 05:39:44;;;;;;;19.33;14.35;;;;;;;;;;5103606;28;20047;-53
2023/10/19 05:42:10;;;;;;;16.75;12.50;;;;;;;;;;5110710;28;20043;-47
2023/10/19 05:44:39;;;;;;;19.70;12.88;;;;;;;;;;5109663;28;20043;-46
2023/10/19 05:47:05;;;;;;;16.02;12.75;;;;;;;;;;5109280;28;20501;-50
2023/10/19 05:49:33;;;;;;;22.95;15.48;;;;;;;;;;5106876;28;20058;-52
2023/10/19 05:52:00;;;;;;;22.42;15.82;;;;;;;;;;5106913;28;20048;-50
2023/10/19 05:54:27;;;;;;;24.05;16.10;;;;;;;;;;5107798;28;20077;-52
2023/10/19 05:56:53;;;;;;;22.05;16.02;;;;;;;;;;5107279;28;20044;-55
2023/10/19 05:59:20;;;;;;;18.65;14.43;;;;;;;;;;5111099;28;20039;-55
2023/10/19 06:01:48;;;;;;;20.60;13.05;;;;;;;;;;5111163;28;20059;-52
2023/10/19 06:04:15;;;;;;;18.70;13.13;;;;;;;;;;5110094;28;20035;-52
2023/10/19 06:06:41;;;;;;;18.85;13.00;;;;;;;;;;5109506;28;20572;-53
2023/10/19 06:09:09;;;;;;;19.15;13.50;;;;;;;;;;5110768;28;20043;-57
2023/10/19 06:11:37;;;;;;;16.08;12.00;;;;;;;;;;5108720;28;20051;-53
2023/10/19 06:14:06;;;;;;;17.48;12.65;;;;;;;;;;5107751;28;20048;-54
2023/10/19 06:16:33;;;;;;;18.10;13.15;;;;;;;;;;5106250;28;20458;-57
2023/10/19 06:19:02;;;;;;;18.33;12.70;;;;;;;;;;5102274;28;20413;-54
2023/10/19 06:21:30;;;;;;;16.38;12.25;;;;;;;;;;5110486;28;20297;-56
2023/10/19 06:23:56;;;;;;;18.95;12.98;;;;;;;;;;5108957;28;20505;-52
2023/10/19 06:26:23;;;;;;;16.35;12.23;;;;;;;;;;5110409;28;20122;-56
2023/10/19 06:28:50;;;;;;;16.52;11.60;;;;;;;;;;5106328;28;20039;-52
2023/10/19 06:31:17;;;;;;;19.02;12.55;;;;;;;;;;5110449;28;20051;-56
2023/10/19 06:33:44;;;;;;;19.13;14.23;;;;;;;;;;5102942;28;20123;-51
2023/10/19 06:36:12;;;;;;;18.83;13.73;;;;;;;;;;5110264;28;20512;-51
2023/10/19 06:38:39;;;;;;;18.38;12.95;;;;;;;;;;5105090;28;20146;-54
2023/10/19 06:41:16;;;;;;;18.77;13.10;;;;;;;;;;5108005;28;20048;-55
2023/10/19 06:43:43;;;;;;;20.80;14.02;;;;;;;;;;5107621;28;20047;-55
2023/10/19 06:46:11;;;;;;;21.15;14.32;;;;;;;;;;5105633;28;20486;-51
2023/10/19 06:48:38;;;;;;;20.08;13.45;;;;;;;;;;5104086;28;20047;-50
2023/10/19 06:51:06;;;;;;;21.80;13.88;;;;;;;;;;5105205;28;20044;-52
2023/10/19 06:53:34;;;;;;;21.48;12.63;;;;;;;;;;5103525;28;20197;-54
2023/10/19 06:56:00;;;;;;;20.40;13.40;;;;;;;;;;5108708;28;20515;-53
2023/10/19 06:58:27;;;;;;;20.73;13.82;;;;;;;;;;5106581;28;20039;-51
2023/10/19 07:00:59;;;;;;;20.55;13.65;;;;;;;;;;5105524;28;20043;-56
2023/10/19 07:03:28;;;;;;;19.70;12.68;;;;;;;;;;5104804;28;20035;-53
2023/10/19 07:05:55;;;;;;;22.13;13.80;;;;;;;;;;5109937;28;20047;-55
2023/10/19 07:08:22;;;;;;;21.67;14.38;;;;;;;;;;5109571;28;20043;-55
2023/10/19 07:10:50;;;;;;;20.63;15.15;;;;;;;;;;5109777;28;20053;-55
2023/10/19 07:13:17;;;;;;;24.70;15.93;;;;;;;;;;5109776;28;20495;-56
2023/10/19 07:15:46;;;;;;;21.95;14.80;;;;;;;;;;5109792;28;20043;-52
2023/10/19 07:18:13;;;;;;;18.67;14.07;;;;;;;;;;5110017;28;20444;-53
2023/10/19 07:20:42;;;;;;;18.52;12.70;;;;;;;;;;5106610;28;20426;-57
2023/10/19 07:23:18;;;;;;;19.02;12.73;;;;;;;;;;5105012;28;20059;-54
2023/10/19 07:25:45;;;;;;;18.15;13.13;;;;;;;;;;5108944;28;20047;-55
2023/10/19 07:28:13;;;;;;;22.35;14.02;;;;;;;;;;5107194;28;20040;-50
2023/10/19 07:30:41;;;;;;;20.55;14.35;;;;;;;;;;5108354;28;20467;-56
2023/10/19 07:33:08;;;;;;;22.83;15.00;;;;;;;;;;5104801;28;20052;-55
2023/10/19 07:35:37;;;;;;;19.23;13.63;;;;;;;;;;5108337;28;20139;-54
2023/10/19 07:38:07;;;;;;;20.15;13.07;;;;;;;;;;5109122;28;20043;-54
2023/10/19 07:40:34;;;;;;;20.23;12.60;;;;;;;;;;5103133;28;20104;-53
2023/10/19 07:43:01;;;;;;;20.52;12.25;;;;;;;;;;5109179;28;20529;-52
2023/10/19 07:45:31;;;;;;;17.83;12.15;;;;;;;;;;5104615;28;20048;-55
2023/10/19 07:48:05;;;;;;;18.60;12.25;;;;;;;;;;5102588;28;20066;-54
2023/10/19 07:50:32;;;;;;;19.40;12.77;;;;;;;;;;5104656;28;20044;-53
2023/10/19 07:52:59;;;;;;;20.48;12.32;;;;;;;;;;5106976;28;20134;-55
2023/10/19 07:55:26;;;;;;;19.70;12.35;;;;;;;;;;5106173;28;20421;-55
2023/10/19 07:57:53;;;;;;;16.58;11.07;;;;;;;;;;5103050;28;20517;-54
2023/10/19 08:00:21;;;;;;;18.58;11.23;;;;;;;;;;5106316;28;20078;-54
2023/10/19 08:02:51;;;;;;;19.10;12.43;;;;;;;;;;5104438;28;20435;-53
2023/10/19 08:05:19;;;;;;;21.23;11.70;;;;;;;;;;5106479;28;20043;-54
2023/10/19 08:07:46;;;;;;;14.77;10.27;;;;;;;;;;5103793;28;20294;-56
2023/10/19 08:10:15;;;;;;;18.35;11.13;;;;;;;;;;5104360;28;20046;-55
2023/10/19 08:12:43;;;;;;;15.23;10.73;;;;;;;;;;5104628;28;20091;-57
2023/10/19 08:15:11;;;;;;;15.55;10.25;;;;;;;;;;5106691;28;20142;-53
2023/10/19 08:17:39;;;;;;;16.52;10.40;;;;;;;;;;5106683;28;20502;-55
2023/10/19 08:20:09;;;;;;;15.65;10.00;;;;;;;;;;5105321;28;20044;-57
2023/10/19 08:22:37;;;;;;;17.50;10.10;;;;;;;;;;5107467;28;20049;-55
2023/10/19 08:25:11;;;;;;;15.55;9.27;;;;;;;;;;5107749;28;20651;-52
2023/10/19 08:27:39;;;;;;;18.75;10.30;;;;;;;;;;5104680;28;20051;-51
2023/10/19 08:30:08;;;;;;;16.95;9.43;;;;;;;;;;5107687;28;20071;-52
2023/10/19 08:32:35;;;;;;;17.90;11.45;;;;;;;;;;5107196;28;20404;-54
2023/10/19 08:35:02;;;;;;;17.58;10.85;;;;;;;;;;5107965;28;20109;-57
2023/10/19 08:37:30;;;;;;;22.75;10.90;;;;;;;;;;5103012;28;20131;-53
2023/10/19 08:39:57;;;;;;;19.13;10.88;;;;;;;;;;5106793;28;20050;-54
2023/10/19 08:42:24;;;;;;;17.27;11.13;;;;;;;;;;5107379;28;20079;-52
2023/10/19 08:44:51;;;;;;;18.88;10.70;;;;;;;;;;5108981;28;20126;-56
2023/10/19 08:47:18;;;;;;;17.40;10.80;;;;;;;;;;5112035;28;20050;-51
2023/10/19 08:49:45;;;;;;;16.17;9.68;;;;;;;;;;5109896;28;20483;-55
2023/10/19 08:52:15;;;;;;;16.63;10.45;;;;;;;;;;5108957;28;20138;-52
2023/10/19 08:54:43;;;;;;;20.63;11.43;;;;;;;;;;5109787;28;20044;-56
2023/10/19 08:57:10;;;;;;;18.70;11.55;;;;;;;;;;5110940;28;20043;-53
2023/10/19 08:59:38;;;;;;;22.77;12.40;;;;;;;;;;5111176;28;20052;-55
2023/10/19 09:02:06;;;;;;;19.52;10.65;;;;;;;;;;5110665;28;20047;-54
2023/10/19 09:04:33;;;;;;;16.63;10.35;;;;;;;;;;5106059;28;20457;-53
2023/10/19 09:07:06;;;;;;;17.83;9.68;;;;;;;;;;5110786;28;20044;-52
2023/10/19 09:09:33;;;;;;;16.00;9.73;;;;;;;;;;5111076;28;20036;-51
2023/10/19 09:12:03;;;;;;;21.25;11.88;;;;;;;;;;5111333;28;20110;-56
2023/10/19 09:14:35;;;;;;;18.60;11.32;;;;;;;;;;5107872;28;20502;-51
2023/10/19 09:17:03;;;;;;;20.42;11.65;;;;;;;;;;5109802;28;20410;-55
2023/10/19 09:19:37;;;;;;;14.60;10.32;;;;;;;;;;5107891;28;20036;-55
2023/10/19 09:22:07;;;;;;;19.17;11.40;;;;;;;;;;5110310;28;20050;-56
2023/10/19 09:24:34;;;;;;;18.93;12.20;;;;;;;;;;5107661;28;20071;-51
2023/10/19 09:27:05;;;;;;;19.88;12.70;;;;;;;;;;5109310;28;20083;-54
2023/10/19 09:29:32;;;;;;;19.33;13.02;;;;;;;;;;5109438;28;20499;-54
2023/10/19 09:32:02;;;;;;;21.98;13.90;;;;;;;;;;5106723;28;20043;-54
2023/10/19 09:34:31;;;;;;;;;;;;;;;;;;5109469;28;20048;-58
2023/10/19 09:37:00;;;;;;;21.10;12.93;;;;;;;;;;5099232;28;19984;-53
2023/10/19 09:39:34;;;;;;;22.20;14.02;;;;;;;;;;5107448;28;20510;-52
2023/10/19 09:42:02;;;;;;;19.95;14.43;;;;;;;;;;5105993;28;20055;-56
2023/10/19 09:44:34;;;;;;;17.88;13.65;;;;;;;;;;5106570;28;20142;-52
2023/10/19 09:47:09;;;;;;;21.35;14.60;;;;;;;;;;5105799;28;20050;-54
2023/10/19 09:49:36;;;;;;;23.98;14.20;;;;;;;;;;5106265;28;20415;-52
2023/10/19 09:52:04;;;;;;;24.00;15.55;;;;;;;;;;5110893;28;20122;-55
2023/10/19 09:54:40;;;;;;;23.05;15.18;;;;;;;;;;5105756;28;20039;-53
2023/10/19 09:57:16;;;;;;;26.38;16.27;;;;;;;;;;5108314;28;20047;-53
2023/10/19 09:59:47;;;;;;;27.20;15.23;;;;;;;;;;5110733;28;20444;-55
2023/10/19 10:02:18;;;;;;;21.83;14.80;;;;;;;;;;5105731;28;20046;-59
2023/10/19 10:04:47;;;;;;;22.13;16.20;;;;;;;;;;5108068;28;20345;-56
2023/10/19 10:07:15;;;;;;;22.38;15.43;;;;;;;;;;5103644;28;20179;-58
2023/10/19 10:09:44;;;;;;;24.02;15.55;;;;;;;;;;5106463;27;20476;-56
2023/10/19 10:12:19;;;;;;;22.63;15.63;;;;;;;;;;5105546;28;20069;-58
2023/10/19 10:15:03;;;;;;;20.25;14.55;;;;;;;;;;5110317;28;20043;-51
2023/10/19 10:17:33;;;;;;;24.55;14.65;;;;;;;;;;5107608;28;20063;-56
2023/10/19 10:20:30;;;;;;;18.80;13.48;;;;;;;;;;5110570;28;20469;-55
2023/10/19 10:23:21;;;;;;;20.58;13.75;;;;;;;;;;5107079;28;20051;-52
2023/10/19 10:25:49;;;;;;;19.42;13.35;;;;;;;;;;5107691;28;20101;-56
2023/10/19 10:28:16;;;;;;;18.55;13.40;;;;;;;;;;5110644;28;20483;-53
2023/10/19 10:31:15;;;;;;;19.25;12.95;;;;;;;;;;5109813;28;20043;-51
2023/10/19 10:33:45;;;;;;;15.30;11.05;;;;;;;;;;5109070;28;20448;-57
2023/10/19 10:36:12;;;;;;;15.32;11.65;;;;;;;;;;5105151;28;20062;-54
2023/10/19 10:38:39;;;;;;;19.30;11.30;;;;;;;;;;5108543;28;20051;-55
2023/10/19 10:41:09;;;;;;;20.85;14.07;;;;;;;;;;5110125;28;20048;-51
2023/10/19 10:43:49;;;;;;;15.93;11.63;;;;;;;;;;5109683;28;20513;-56
2023/10/19 10:46:17;;;;;;;18.65;12.00;;;;;;;;;;5106040;28;20050;-53
2023/10/19 10:48:44;;;;;;;14.07;11.02;;;;;;;;;;5109093;28;20044;-53
2023/10/19 10:51:18;;;;;;;15.80;11.85;;;;;;;;;;5109005;28;20043;-51
2023/10/19 10:53:48;;;;;;;20.10;14.05;;;;;;;;;;5108787;28;20047;-53
2023/10/19 10:56:15;;;;;;;20.58;14.32;;;;;;;;;;5109777;28;20519;-51
2023/10/19 10:58:42;;;;;;;18.90;14.88;;;;;;;;;;5109304;28;20048;-55
2023/10/19 11:01:10;;;;;;;16.23;11.70;;;;;;;;;;5110262;28;20123;-55
2023/10/19 11:03:38;;;;;;;18.33;12.07;;;;;;;;;;5108669;28;20044;-49
2023/10/19 11:06:07;;;;;;;16.75;12.55;;;;;;;;;;5108028;28;20047;-50
2023/10/19 11:08:35;;;;;;;22.52;13.48;;;;;;;;;;5109724;28;20114;-52
2023/10/19 11:11:06;;;;;;;27.92;16.92;;;;;;;;;;5106960;28;20097;-54
2023/10/19 11:13:34;;;;;;;17.75;12.63;;;;;;;;;;5108055;28;20050;-54
2023/10/19 11:16:05;;;;;;;20.58;12.82;;;;;;;;;;5109466;28;20055;-55
2023/10/19 11:18:35;;;;;;;19.92;13.10;;;;;;;;;;5109827;28;20130;-54
2023/10/19 11:21:06;;;;;;;16.48;11.60;;;;;;;;;;5109223;28;20058;-55
2023/10/19 11:23:41;;;;;;;19.60;12.77;;;;;;;;;;5109211;28;20044;-52
2023/10/19 11:26:08;;;;;;;19.48;12.30;;;;;;;;;;5109064;28;20491;-49
2023/10/19 11:28:38;;;;;;;15.57;11.93;;;;;;;;;;5107017;28;20451;-55
2023/10/19 11:31:15;;;;;;;17.90;12.30;;;;;;;;;;5109607;28;20427;-52
2023/10/19 11:33:44;;;;;;;17.55;11.02;;;;;;;;;;5109265;28;20071;-50
2023/10/19 11:36:13;;;;;;;17.45;12.30;;;;;;;;;;5107347;28;20050;-55
2023/10/19 11:38:43;;;;;;;15.48;12.50;;;;;;;;;;5102509;28;20058;-52
2023/10/19 11:41:10;;;;;;;;;;;;;;;;;;5103002;28;20035;-56
2023/10/19 11:43:40;;;;;;;17.92;10.73;;;;;;;;;;5104381;28;19935;-51
2023/10/19 11:46:07;;;;;;;16.60;11.82;;;;;;;;;;5106181;28;20075;-52
2023/10/19 11:48:36;;;;;;;20.17;10.35;;;;;;;;;;5106603;28;20050;-53
2023/10/19 11:51:04;;;;;;;15.45;10.70;;;;;;;;;;5101877;28;20048;-52
2023/10/19 11:53:34;;;;;;;15.90;10.60;;;;;;;;;;5103773;28;20035;-54
2023/10/19 11:56:03;;;;;;;14.77;9.82;;;;;;;;;;5106524;28;20534;-50
2023/10/19 11:58:32;;;;;;;17.65;10.90;;;;;;;;;;5100724;28;20075;-55
2023/10/19 12:00:59;;;;;;;14.95;10.63;;;;;;;;;;5105355;28;20071;-54
2023/10/19 12:03:26;;;;;;;16.27;11.00;;;;;;;;;;5106525;28;20039;-54
2023/10/19 12:05:55;;;;;;;17.60;12.15;;;;;;;;;;5103154;28;20062;-53
2023/10/19 12:08:22;;;;;;;16.25;11.50;;;;;;;;;;5105657;28;20710;-54
2023/10/19 12:10:50;;;;;;;20.08;13.50;;;;;;;;;;5105435;28;20066;-56
2023/10/19 12:13:17;;;;;;;20.40;12.73;;;;;;;;;;5106918;28;20096;-58
2023/10/19 12:15:51;;;;;;;18.77;12.43;;;;;;;;;;5104839;28;20065;-51
2023/10/19 12:18:22;;;;;;;18.25;10.73;;;;;;;;;;5107013;28;20046;-54
2023/10/19 12:20:49;;;;;;;17.10;10.88;;;;;;;;;;5108248;28;20479;-50
2023/10/19 12:23:15;;;;;;;16.08;10.40;;;;;;;;;;5107083;28;20039;-54
2023/10/19 12:25:43;;;;;;;15.32;10.57;;;;;;;;;;5103712;28;20054;-51
2023/10/19 12:28:14;;;;;;;17.83;9.95;;;;;;;;;;5103276;28;20043;-51
2023/10/19 12:30:42;;;;;;;14.13;9.10;;;;;;;;;;5107879;28;20043;-50
2023/10/19 12:33:12;;;;;;;15.45;9.77;;;;;;;;;;5106804;28;20527;-56
2023/10/19 12:35:53;;;;;;;14.68;9.13;;;;;;;;;;5103439;28;20411;-55
2023/10/19 12:38:20;;;;;;;15.95;9.13;;;;;;;;;;5103262;28;20435;-55
2023/10/19 12:40:48;;;;;;;24.50;12.75;;;;;;;;;;5107543;28;20070;-54
2023/10/19 12:43:18;;;;;;;21.17;11.65;;;;;;;;;;5106383;28;20149;-53
2023/10/19 12:45:50;;;;;;;17.10;10.13;;;;;;;;;;5099655;28;20112;-53
2023/10/19 12:48:17;;;;;;;13.82;7.93;;;;;;;;;;5102141;28;20487;-52
2023/10/19 12:50:44;;;;;;;12.20;6.95;;;;;;;;;;5105684;28;20044;-52
2023/10/19 12:53:10;;;;;;;14.13;7.55;;;;;;;;;;5104196;28;20050;-61
2023/10/19 12:55:38;;;;;;;10.77;6.57;;;;;;;;;;5102598;28;20055;-64
2023/10/19 12:58:08;;;;;;;10.13;6.45;;;;;;;;;;5104909;28;20580;-48
2023/10/19 13:00:40;;;;;;;8.93;5.85;;;;;;;;;;5104623;28;20035;-59
2023/10/19 13:03:08;;;;;;;11.40;7.38;;;;;;;;;;5102641;28;20495;-53
2023/10/19 13:05:38;;;;;;;13.68;7.03;;;;;;;;;;5107358;28;20043;-53
2023/10/19 13:08:07;;;;;;;10.10;6.32;;;;;;;;;;5103695;28;20132;-54
2023/10/19 13:10:36;;;;;;;17.92;10.35;;;;;;;;;;5105374;28;20075;-58
2023/10/19 13:13:05;;;;;;;14.73;8.63;;;;;;;;;;5102842;28;20065;-53
2023/10/19 13:15:32;;;;;;;13.13;7.75;;;;;;;;;;5105890;28;20082;-50
2023/10/19 13:18:00;;;;;;;9.55;6.30;;;;;;;;;;5105333;28;20051;-49
2023/10/19 13:20:28;;;;;;;9.73;6.32;;;;;;;;;;5104629;28;20040;-53
2023/10/19 13:22:56;;;;;;;9.63;5.68;;;;;;;;;;5106253;28;20056;-52
2023/10/19 13:25:38;;;;;;;8.57;5.15;;;;;;;;;;5108032;28;20056;-53
2023/10/19 13:28:08;;;;;;;9.32;5.35;;;;;;;;;;5107907;28;20505;-53
2023/10/19 13:30:37;;;;;;;8.98;5.65;;;;;;;;;;5106894;28;20092;-53
2023/10/19 13:33:09;;;;;;;11.52;5.55;;;;;;;;;;5110875;28;20100;-52
2023/10/19 13:35:36;;;;;;;10.32;6.32;;;;;;;;;;5107688;28;20081;-55
2023/10/19 13:38:04;;;;;;;8.45;6.15;;;;;;;;;;5110203;28;20058;-54
2023/10/19 13:40:30;;;;;;;8.10;4.97;;;;;;;;;;5108926;28;20104;-53
2023/10/19 13:42:57;;;;;;;10.15;6.63;;;;;;;;;;5109248;28;20431;-51
2023/10/19 13:45:24;;;;;;;10.18;5.82;;;;;;;;;;5109681;28;20118;-50
2023/10/19 13:47:54;;;;;;;9.55;6.05;;;;;;;;;;5108977;28;20131;-53
2023/10/19 13:50:37;;;;;;;11.00;6.93;;;;;;;;;;5111620;28;20131;-50
2023/10/19 13:53:04;;;;;;;11.15;6.65;;;;;;;;;;5101466;28;20502;-53
2023/10/19 13:55:33;;;;;;;10.57;5.20;;;;;;;;;;5107300;28;20096;-53
2023/10/19 13:58:01;;;;;;;7.20;4.90;;;;;;;;;;5107428;28;20150;-54
2023/10/19 14:00:35;;;;;;;11.45;7.10;;;;;;;;;;5106387;28;20138;-51
2023/10/19 14:03:04;;;;;;;10.18;6.93;;;;;;;;;;5103894;28;20071;-53
2023/10/19 14:05:38;;;;;;;10.82;6.63;;;;;;;;;;5110630;28;20491;-55
2023/10/19 14:08:05;;;;;;;12.00;6.22;;;;;;;;;;5106203;28;20134;-54
2023/10/19 14:10:32;;;;;;;10.82;6.72;;;;;;;;;;5105353;28;20066;-53
2023/10/19 14:12:59;;;;;;;10.27;6.07;;;;;;;;;;5105464;28;20052;-55
2023/10/19 14:15:27;;;;;;;9.13;6.85;;;;;;;;;;5107846;28;20046;-53
2023/10/19 14:17:58;;;;;;;13.20;6.90;;;;;;;;;;5106350;28;20065;-53
2023/10/19 14:20:25;;;;;;;10.98;6.82;;;;;;;;;;5108310;28;20498;-51
2023/10/19 14:22:55;;;;;;;9.48;6.50;;;;;;;;;;5107479;28;20540;-53
2023/10/19 14:25:22;;;;;;;13.87;7.30;;;;;;;;;;5108343;28;20044;-56
2023/10/19 14:27:50;;;;;;;11.30;7.93;;;;;;;;;;5106368;28;20508;-51
2023/10/19 14:30:18;;;;;;;12.70;8.00;;;;;;;;;;5108479;28;20051;-54
2023/10/19 14:32:47;;;;;;;10.60;7.63;;;;;;;;;;5107421;28;20044;-51
2023/10/19 14:35:16;;;;;;;11.98;7.60;;;;;;;;;;5107454;28;20075;-51
2023/10/19 14:37:44;;;;;;;13.10;8.88;;;;;;;;;;5108528;28;20083;-52